Time;durP1;ratioP1;P1;durP2;ratioP2;P2;SDS_P1;SDS_P2;PMS_P1;PMS_P2;Temp;Humidity;BMP_temperature;BMP_pressure;BME280_temperature;BME280_humidity;BME280_pressure;Samples;Min_cycle;Max_cycle;Signal;HPM_P1;HPM_P2
2023/09/03 00:02:15;;;;;;;4.55;2.15;;;25.00;90.40;;;;;;7399405;19;20022;-79
2023/09/03 00:04:44;;;;;;;4.97;2.65;;;24.90;90.50;;;;;;7418716;19;20003;-79
2023/09/03 00:07:13;;;;;;;5.68;2.40;;;24.90;90.50;;;;;;7398991;19;20053;-81
2023/09/03 00:09:42;;;;;;;6.57;2.30;;;24.90;90.50;;;;;;7399642;19;20013;-81
2023/09/03 00:12:13;;;;;;;2.92;2.00;;;25.00;90.50;;;;;;7392170;19;20003;-80
2023/09/03 00:14:42;;;;;;;3.63;2.35;;;24.90;90.50;;;;;;7386669;19;20010;-80
2023/09/03 00:17:14;;;;;;;3.85;2.40;;;24.90;90.70;;;;;;7411159;19;20234;-80
2023/09/03 00:19:43;;;;;;;4.22;2.30;;;24.80;90.80;;;;;;7388692;19;20272;-80
2023/09/03 00:22:11;;;;;;;3.42;2.28;;;24.70;90.90;;;;;;7388606;19;20002;-80
2023/09/03 00:24:40;;;;;;;6.32;2.40;;;24.80;90.90;;;;;;7387115;19;20014;-80
2023/09/03 00:27:09;;;;;;;4.25;2.28;;;24.70;90.90;;;;;;7388515;19;20006;-80
2023/09/03 00:29:40;;;;;;;5.47;2.67;;;24.80;91.00;;;;;;7388190;19;20017;-80
2023/09/03 00:32:09;;;;;;;2.25;1.70;;;24.80;90.90;;;;;;7407650;19;20027;-80
2023/09/03 00:34:38;;;;;;;8.88;2.55;;;24.80;90.90;;;;;;7385374;19;20029;-80
2023/09/03 00:37:06;;;;;;;3.33;2.22;;;24.80;90.80;;;;;;7386502;19;20026;-80
2023/09/03 00:39:36;;;;;;;2.20;1.90;;;24.90;90.80;;;;;;7386353;19;20228;-80
2023/09/03 00:42:05;;;;;;;4.97;2.40;;;24.80;90.90;;;;;;7386288;19;20013;-80
2023/09/03 00:44:34;;;;;;;6.63;2.33;;;24.80;90.90;;;;;;7387183;19;20034;-80
2023/09/03 00:47:07;;;;;;;6.93;2.22;;;24.80;90.80;;;;;;7407573;19;20002;-80
2023/09/03 00:49:36;;;;;;;2.22;1.95;;;24.80;90.90;;;;;;7386519;19;20011;-79
2023/09/03 00:52:05;;;;;;;2.80;2.20;;;24.80;90.80;;;;;;7386225;19;20002;-80
2023/09/03 00:54:34;;;;;;;4.43;2.40;;;24.80;90.90;;;;;;7385949;19;20018;-80
2023/09/03 00:57:03;;;;;;;3.67;2.30;;;24.80;90.80;;;;;;7387014;19;20236;-79
2023/09/03 00:59:33;;;;;;;8.27;2.50;;;24.80;90.90;;;;;;7386512;19;20235;-79
2023/09/03 01:02:05;;;;;;;3.20;2.15;;;24.70;91.00;;;;;;7407722;19;20011;-80
2023/09/03 01:04:34;;;;;;;4.82;2.33;;;24.70;91.00;;;;;;7385841;19;20015;-79
2023/09/03 01:07:02;;;;;;;4.32;2.15;;;24.60;91.10;;;;;;7385672;19;20018;-79
2023/09/03 01:09:31;;;;;;;3.08;2.30;;;24.60;91.10;;;;;;7385859;19;20006;-79
2023/09/03 01:12:09;;;;;;;3.83;2.10;;;24.50;91.20;;;;;;7386440;19;20011;-80
2023/09/03 01:14:43;;;;;;;8.30;2.45;;;24.40;91.40;;;;;;7387264;19;20384;-80
2023/09/03 01:17:19;;;;;;;5.78;2.35;;;24.40;91.40;;;;;;7406518;19;20003;-81
2023/09/03 01:20:09;;;;;;;5.43;2.00;;;24.40;91.40;;;;;;7386573;19;20013;-79
2023/09/03 01:22:56;;;;;;;3.08;2.33;;;24.40;91.40;;;;;;7386654;19;20111;-80
2023/09/03 01:25:41;;;;;;;3.58;2.00;;;24.40;91.40;;;;;;7385571;19;20244;-80
2023/09/03 01:28:28;;;;;;;2.97;2.10;;;24.50;91.40;;;;;;7386428;19;20006;-80
2023/09/03 01:31:01;;;;;;;6.40;2.20;;;24.50;91.30;;;;;;7386313;19;19999;-80
2023/09/03 01:33:32;;;;;;;6.93;2.05;;;24.50;91.20;;;;;;7386720;19;20031;-80
2023/09/03 01:36:02;;;;;;;6.35;2.20;;;24.50;91.20;;;;;;7386273;19;20011;-80
2023/09/03 01:38:31;;;;;;;6.90;2.05;;;24.40;91.20;;;;;;7386035;19;20003;-80
2023/09/03 01:41:01;;;;;;;3.58;1.80;;;24.50;91.30;;;;;;7405547;19;20062;-80
2023/09/03 01:43:32;;;;;;;3.80;2.00;;;24.40;91.30;;;;;;7386973;19;20003;-80
2023/09/03 01:46:06;;;;;;;5.53;1.90;;;24.40;91.40;;;;;;7383171;19;20011;-80
2023/09/03 01:49:05;;;;;;;5.00;2.10;;;24.30;91.40;;;;;;7385686;19;20010;-80
2023/09/03 01:51:40;;;;;;;4.20;2.13;;;24.20;92.00;;;;;;7388232;19;20007;-80
2023/09/03 01:54:15;;;;;;;3.90;2.22;;;24.20;91.70;;;;;;7391607;19;20048;-80
2023/09/03 01:56:51;;;;;;;2.58;1.73;;;24.10;91.80;;;;;;7390809;19;20006;-80
2023/09/03 01:59:32;;;;;;;4.53;2.40;;;24.10;91.80;;;;;;7388096;19;20386;-80
2023/09/03 02:02:02;;;;;;;5.53;1.88;;;23.90;92.10;;;;;;7411753;19;20106;-80
2023/09/03 02:04:31;;;;;;;6.47;2.20;;;24.00;92.10;;;;;;7396925;19;20006;-81
2023/09/03 02:07:00;;;;;;;3.45;2.05;;;24.00;92.00;;;;;;7396530;19;20022;-80
2023/09/03 02:09:28;;;;;;;6.55;2.17;;;23.90;92.00;;;;;;7393604;19;20010;-79
2023/09/03 02:11:57;;;;;;;4.28;2.15;;;23.90;92.00;;;;;;7385832;19;20003;-78
2023/09/03 02:14:29;;;;;;;5.63;2.22;;;23.90;92.10;;;;;;7383102;19;20017;-79
2023/09/03 02:16:57;;;;;;;3.28;2.10;;;23.90;92.10;;;;;;7405584;19;20023;-79
2023/09/03 02:19:26;;;;;;;2.35;2.00;;;23.90;92.10;;;;;;7383652;19;20401;-79
2023/09/03 02:21:55;;;;;;;5.57;2.05;;;23.90;92.10;;;;;;7383722;19;20010;-79
2023/09/03 02:24:23;;;;;;;5.05;2.30;;;23.90;92.10;;;;;;7384229;19;20006;-79
2023/09/03 02:26:52;;;;;;;3.67;2.00;;;23.90;92.00;;;;;;7382909;19;20011;-80
2023/09/03 02:29:21;;;;;;;6.20;1.85;;;23.90;92.00;;;;;;7383619;19;20015;-79
2023/09/03 02:31:52;;;;;;;3.75;2.00;;;23.90;92.00;;;;;;7404373;19;20660;-79
2023/09/03 02:34:21;;;;;;;4.13;2.40;;;23.90;92.00;;;;;;7384499;19;20020;-79
2023/09/03 02:36:50;;;;;;;4.00;2.22;;;23.90;92.00;;;;;;7382914;19;20007;-79
2023/09/03 02:39:19;;;;;;;3.30;2.00;;;23.80;92.00;;;;;;7384951;19;20017;-79
2023/09/03 02:41:48;;;;;;;3.58;2.20;;;23.80;92.00;;;;;;7384483;19;20020;-79
2023/09/03 02:44:16;;;;;;;4.30;2.28;;;23.80;92.00;;;;;;7381945;19;20003;-79
2023/09/03 02:46:45;;;;;;;4.05;2.50;;;23.80;92.00;;;;;;7403350;19;20359;-79
2023/09/03 02:49:16;;;;;;;5.50;2.28;;;23.70;92.20;;;;;;7382565;19;20006;-80
2023/09/03 02:51:45;;;;;;;5.22;2.17;;;23.70;92.20;;;;;;7383807;19;20007;-79
2023/09/03 02:54:14;;;;;;;4.50;2.30;;;23.60;92.30;;;;;;7383739;19;20023;-80
2023/09/03 02:56:43;;;;;;;4.18;2.10;;;23.60;92.40;;;;;;7384537;19;20011;-79
2023/09/03 02:59:11;;;;;;;2.78;1.88;;;23.40;92.70;;;;;;7410564;19;20015;-79
2023/09/03 03:01:42;;;;;;;4.57;2.30;;;23.50;92.70;;;;;;7390092;19;20685;-79
2023/09/03 03:04:10;;;;;;;2.93;2.10;;;23.40;92.80;;;;;;7389962;19;20050;-79
2023/09/03 03:06:42;;;;;;;5.35;2.58;;;23.50;92.80;;;;;;7390034;19;20015;-79
2023/09/03 03:09:10;;;;;;;;;;;23.50;92.90;;;;;;7389921;19;20014;-80
2023/09/03 03:11:39;;;;;;;6.93;2.58;;;23.50;92.90;;;;;;7387762;19;19911;-79
2023/09/03 03:14:08;;;;;;;5.00;2.53;;;23.50;92.90;;;;;;7412026;19;20010;-79
2023/09/03 03:16:36;;;;;;;5.22;2.72;;;23.50;92.90;;;;;;7389360;19;20019;-79
2023/09/03 03:19:05;;;;;;;6.00;2.70;;;23.50;93.00;;;;;;7389054;19;20010;-79
2023/09/03 03:21:34;;;;;;;4.82;2.50;;;23.50;93.00;;;;;;7389286;19;20037;-81
2023/09/03 03:24:06;;;;;;;6.05;2.40;;;23.50;92.90;;;;;;7389544;19;20018;-79
2023/09/03 03:26:35;;;;;;;5.47;2.55;;;23.60;92.90;;;;;;7389218;19;20066;-80
2023/09/03 03:29:04;;;;;;;3.28;2.00;;;23.60;92.80;;;;;;7412218;19;20024;-79
2023/09/03 03:31:34;;;;;;;3.53;2.33;;;23.70;92.80;;;;;;7387910;19;20007;-80
2023/09/03 03:34:03;;;;;;;3.38;2.55;;;23.70;92.70;;;;;;7389430;19;20006;-80
2023/09/03 03:36:32;;;;;;;4.55;2.88;;;23.70;92.60;;;;;;7388013;19;20018;-80
2023/09/03 03:39:01;;;;;;;5.07;2.28;;;23.60;92.70;;;;;;7389795;19;20027;-80
2023/09/03 03:41:32;;;;;;;9.27;2.75;;;23.60;92.80;;;;;;7387835;19;20107;-80
2023/09/03 03:44:00;;;;;;;;;;;23.50;92.80;;;;;;7410468;19;20019;-80
2023/09/03 03:46:29;;;;;;;6.63;2.75;;;23.60;92.80;;;;;;7388659;19;19915;-80
2023/09/03 03:48:59;;;;;;;3.53;2.50;;;23.50;92.80;;;;;;7389897;19;20009;-80
2023/09/03 03:51:28;;;;;;;3.85;2.65;;;23.60;92.90;;;;;;7390528;19;20006;-80
2023/09/03 03:53:59;;;;;;;6.43;2.70;;;23.50;93.00;;;;;;7391517;19;20017;-80
2023/09/03 03:56:27;;;;;;;5.88;2.83;;;23.50;92.90;;;;;;7388517;19;20026;-79
2023/09/03 03:58:59;;;;;;;3.55;2.63;;;23.50;92.90;;;;;;7415889;19;20035;-79
2023/09/03 04:01:27;;;;;;;;;;;23.50;92.80;;;;;;7404342;19;20010;-79
2023/09/03 04:03:57;;;;;;;4.30;2.97;;;23.60;92.80;;;;;;7402289;19;19915;-79
2023/09/03 04:06:27;;;;;;;4.18;2.60;;;23.60;92.70;;;;;;7401756;19;20011;-78
2023/09/03 04:08:59;;;;;;;4.18;2.63;;;23.60;92.70;;;;;;7397644;19;20080;-79
2023/09/03 04:11:27;;;;;;;5.88;2.97;;;23.60;92.80;;;;;;7387941;19;20031;-79
2023/09/03 04:13:59;;;;;;;3.63;2.50;;;23.50;92.70;;;;;;7409093;19;20022;-79
2023/09/03 04:16:27;;;;;;;;;;;23.50;92.80;;;;;;7387447;19;20003;-79
2023/09/03 04:18:56;;;;;;;3.78;2.50;;;23.60;92.80;;;;;;7386305;19;19963;-79
2023/09/03 04:21:25;;;;;;;8.40;2.75;;;23.60;92.70;;;;;;7387036;19;20014;-79
2023/09/03 04:23:54;;;;;;;3.45;2.60;;;23.60;92.70;;;;;;7387300;19;20101;-79
2023/09/03 04:26:22;;;;;;;7.75;2.78;;;23.50;92.70;;;;;;7385745;19;20018;-79
2023/09/03 04:28:51;;;;;;;3.90;2.75;;;23.60;92.70;;;;;;7405814;19;20349;-79
2023/09/03 04:31:22;;;;;;;4.18;2.60;;;23.60;92.70;;;;;;7385155;19;20025;-79
2023/09/03 04:33:51;;;;;;;;;;;23.50;92.60;;;;;;7386508;19;20015;-79
2023/09/03 04:36:19;;;;;;;5.45;2.47;;;23.40;92.80;;;;;;7384973;19;19907;-78
2023/09/03 04:38:48;;;;;;;4.32;2.40;;;23.40;93.20;;;;;;7384475;19;20083;-79
2023/09/03 04:41:17;;;;;;;6.28;2.85;;;23.40;92.90;;;;;;7384859;19;20003;-79
2023/09/03 04:43:46;;;;;;;3.20;2.60;;;23.40;92.90;;;;;;7403024;19;19999;-79
2023/09/03 04:46:15;;;;;;;8.93;3.17;;;23.40;92.90;;;;;;7383695;19;20009;-79
2023/09/03 04:48:46;;;;;;;3.90;2.58;;;23.40;92.80;;;;;;7386148;19;20416;-78
2023/09/03 04:51:15;;;;;;;;;;;23.40;92.80;;;;;;7386674;19;20014;-79
2023/09/03 04:53:44;;;;;;;4.85;2.75;;;23.40;93.20;;;;;;7387344;19;19906;-79
2023/09/03 04:56:14;;;;;;;4.55;2.60;;;23.40;92.80;;;;;;7407385;19;20017;-79
2023/09/03 04:58:43;;;;;;;5.53;2.63;;;23.40;92.90;;;;;;7386890;19;20017;-78
2023/09/03 05:01:18;;;;;;;5.05;2.60;;;23.30;93.30;;;;;;7386025;19;20011;-79
2023/09/03 05:03:50;;;;;;;4.40;2.70;;;23.30;93.00;;;;;;7386949;19;20014;-80
2023/09/03 05:06:19;;;;;;;4.20;2.15;;;23.20;93.00;;;;;;7387740;19;20014;-79
2023/09/03 05:08:48;;;;;;;4.50;2.50;;;23.20;93.20;;;;;;7387281;19;20003;-79
2023/09/03 05:11:17;;;;;;;7.93;2.42;;;23.10;93.10;;;;;;7387599;19;20007;-79
2023/09/03 05:13:46;;;;;;;6.85;2.65;;;23.10;93.10;;;;;;7411536;19;20017;-79
2023/09/03 05:16:15;;;;;;;11.18;2.50;;;23.10;93.20;;;;;;7390303;19;20014;-79
2023/09/03 05:18:44;;;;;;;3.95;2.28;;;23.10;93.20;;;;;;7390585;19;20405;-79
2023/09/03 05:21:15;;;;;;;4.18;2.50;;;23.10;93.30;;;;;;7390997;19;20003;-80
2023/09/03 05:23:44;;;;;;;2.83;2.10;;;23.00;93.20;;;;;;7393173;19;20003;-80
2023/09/03 05:26:13;;;;;;;3.55;2.20;;;23.00;93.20;;;;;;7416742;19;20007;-80
2023/09/03 05:28:41;;;;;;;4.93;2.33;;;23.00;93.20;;;;;;7398244;19;20007;-79
2023/09/03 05:31:10;;;;;;;4.15;2.20;;;23.00;93.20;;;;;;7392583;19;20251;-79
2023/09/03 05:33:39;;;;;;;7.15;2.20;;;23.10;93.30;;;;;;7385594;19;20538;-79
2023/09/03 05:36:08;;;;;;;11.02;2.63;;;23.10;93.20;;;;;;7385839;19;20034;-80
2023/09/03 05:38:42;;;;;;;4.40;2.50;;;23.10;93.10;;;;;;7384830;19;20014;-79
2023/09/03 05:41:11;;;;;;;7.53;2.80;;;23.10;93.10;;;;;;7406306;19;20015;-79
2023/09/03 05:43:40;;;;;;;4.63;2.42;;;23.00;93.40;;;;;;7385877;19;20544;-80
2023/09/03 05:46:08;;;;;;;5.78;2.50;;;23.00;93.40;;;;;;7385516;19;20027;-80
2023/09/03 05:48:37;;;;;;;7.47;2.60;;;23.00;93.30;;;;;;7385483;19;20007;-79
2023/09/03 05:51:06;;;;;;;5.28;2.60;;;23.10;93.30;;;;;;7386115;19;20401;-78
2023/09/03 05:53:35;;;;;;;3.58;2.15;;;23.10;93.20;;;;;;7384681;19;19996;-79
2023/09/03 05:56:12;;;;;;;5.78;2.70;;;23.10;93.20;;;;;;7407887;19;20456;-80
2023/09/03 05:58:41;;;;;;;4.57;2.03;;;23.10;93.10;;;;;;7397140;19;20014;-80
2023/09/03 06:01:11;;;;;;;4.57;2.28;;;23.20;93.10;;;;;;7398607;19;20234;-79
2023/09/03 06:03:41;;;;;;;13.48;2.67;;;23.20;93.10;;;;;;7399399;19;20010;-80
2023/09/03 06:06:11;;;;;;;4.88;2.33;;;23.30;93.10;;;;;;7398773;19;20087;-79
2023/09/03 06:08:41;;;;;;;4.10;2.38;;;23.30;93.00;;;;;;7386228;19;20011;-80
2023/09/03 06:11:13;;;;;;;3.35;2.33;;;23.40;93.00;;;;;;7407357;19;20010;-80
2023/09/03 06:13:41;;;;;;;;;;;23.50;93.00;;;;;;7386555;19;20007;-80
2023/09/03 06:16:10;;;;;;;6.10;2.65;;;23.50;92.90;;;;;;7383347;19;19922;-80
2023/09/03 06:18:39;;;;;;;3.75;1.95;;;23.50;92.90;;;;;;7384241;19;20042;-80
2023/09/03 06:21:08;;;;;;;3.53;2.20;;;23.60;92.90;;;;;;7383980;19;20007;-80
2023/09/03 06:23:37;;;;;;;5.53;2.40;;;23.60;92.90;;;;;;7384457;19;20034;-80
2023/09/03 06:26:05;;;;;;;5.57;2.95;;;23.60;92.90;;;;;;7407627;19;20011;-80
2023/09/03 06:28:37;;;;;;;6.75;2.45;;;23.70;92.90;;;;;;7384797;19;20007;-79
2023/09/03 06:31:05;;;;;;;4.65;2.65;;;23.70;92.90;;;;;;7383318;19;19999;-79
2023/09/03 06:33:35;;;;;;;5.95;2.50;;;23.70;92.90;;;;;;7385689;19;20028;-79
2023/09/03 06:36:03;;;;;;;4.88;2.72;;;23.80;92.80;;;;;;7390746;19;20020;-79
2023/09/03 06:38:32;;;;;;;6.15;2.38;;;23.90;92.70;;;;;;7387363;19;20242;-79
2023/09/03 06:41:01;;;;;;;5.07;2.53;;;23.90;92.70;;;;;;7412844;19;20039;-80
2023/09/03 06:43:30;;;;;;;6.43;2.70;;;23.90;92.70;;;;;;7391607;19;20092;-80
2023/09/03 06:46:01;;;;;;;5.25;2.22;;;24.00;92.50;;;;;;7391679;19;20027;-80
2023/09/03 06:48:30;;;;;;;4.28;2.53;;;24.00;92.30;;;;;;7392489;19;20034;-81
2023/09/03 06:50:58;;;;;;;4.07;2.50;;;24.10;92.30;;;;;;7389387;19;20003;-80
2023/09/03 06:53:27;;;;;;;4.45;2.50;;;24.20;92.30;;;;;;7391274;19;20014;-80
2023/09/03 06:55:56;;;;;;;4.38;2.30;;;24.20;92.20;;;;;;7413281;19;20666;-79
2023/09/03 06:58:25;;;;;;;4.03;2.40;;;24.30;92.00;;;;;;7389992;19;20003;-79
2023/09/03 07:00:53;;;;;;;7.35;2.60;;;24.30;91.90;;;;;;7389211;19;20014;-79
2023/09/03 07:03:25;;;;;;;2.60;2.38;;;24.40;91.90;;;;;;7389557;19;20052;-78
2023/09/03 07:05:53;;;;;;;4.38;2.80;;;24.40;91.70;;;;;;7388119;19;20009;-78
2023/09/03 07:08:22;;;;;;;7.07;2.20;;;24.50;91.60;;;;;;7388067;19;20006;-79
2023/09/03 07:10:51;;;;;;;3.50;2.50;;;24.50;91.50;;;;;;7408236;19;20051;-79
2023/09/03 07:13:20;;;;;;;7.07;2.20;;;24.60;91.40;;;;;;7390142;19;20034;-79
2023/09/03 07:15:48;;;;;;;4.90;2.25;;;24.60;91.30;;;;;;7389786;19;20055;-79
2023/09/03 07:18:17;;;;;;;4.13;2.30;;;24.60;91.20;;;;;;7389032;19;20024;-81
2023/09/03 07:20:48;;;;;;;3.00;2.08;;;24.70;91.10;;;;;;7391360;19;20013;-80
2023/09/03 07:23:17;;;;;;;5.68;2.10;;;24.70;91.00;;;;;;7387351;19;20016;-80
2023/09/03 07:25:46;;;;;;;6.10;2.20;;;24.80;90.90;;;;;;7411801;19;20014;-78
2023/09/03 07:28:15;;;;;;;3.97;2.25;;;24.80;90.80;;;;;;7386819;19;20006;-79
2023/09/03 07:30:45;;;;;;;4.57;2.08;;;24.80;90.80;;;;;;7390612;19;20042;-79
2023/09/03 07:33:14;;;;;;;6.37;2.10;;;24.80;90.70;;;;;;7388464;19;20007;-79
2023/09/03 07:35:42;;;;;;;7.25;2.50;;;24.90;90.70;;;;;;7386822;19;20002;-79
2023/09/03 07:38:14;;;;;;;4.03;2.40;;;24.90;90.50;;;;;;7408108;19;20281;-79
2023/09/03 07:40:42;;;;;;;4.88;2.55;;;24.90;90.50;;;;;;7389315;19;20017;-80
2023/09/03 07:43:11;;;;;;;3.95;2.20;;;24.90;90.50;;;;;;7387458;19;20006;-79
2023/09/03 07:45:40;;;;;;;4.22;2.40;;;24.90;90.50;;;;;;7388403;19;20039;-80
2023/09/03 07:48:09;;;;;;;6.72;2.15;;;25.00;90.30;;;;;;7388500;19;20062;-80
2023/09/03 07:50:40;;;;;;;5.00;2.28;;;25.00;90.20;;;;;;7391191;19;20006;-80
2023/09/03 07:53:09;;;;;;;;;;;25.10;90.20;;;;;;7410576;19;20010;-80
2023/09/03 07:55:40;;;;;;;5.25;2.30;;;25.10;90.10;;;;;;7388425;19;19915;-79
2023/09/03 07:58:09;;;;;;;6.38;2.30;;;25.10;90.00;;;;;;7405459;19;20017;-80
2023/09/03 08:00:38;;;;;;;5.40;2.35;;;25.20;90.00;;;;;;7408503;19;20003;-79
2023/09/03 08:03:07;;;;;;;2.40;2.05;;;25.20;90.00;;;;;;7409211;19;20006;-79
2023/09/03 08:05:36;;;;;;;8.77;2.50;;;25.30;89.70;;;;;;7401943;19;20018;-80
2023/09/03 08:08:05;;;;;;;4.22;2.13;;;25.30;89.70;;;;;;7407552;19;20322;-79
2023/09/03 08:10:34;;;;;;;2.85;2.13;;;25.30;89.60;;;;;;7387776;19;20010;-79
2023/09/03 08:13:05;;;;;;;3.00;2.40;;;25.30;89.60;;;;;;7387227;19;20006;-80
2023/09/03 08:15:34;;;;;;;2.67;2.13;;;25.40;89.40;;;;;;7387741;19;20007;-80
2023/09/03 08:18:03;;;;;;;5.53;2.30;;;25.40;89.40;;;;;;7390015;19;20010;-80
2023/09/03 08:20:31;;;;;;;4.25;2.17;;;25.40;89.30;;;;;;7388460;19;20007;-79
2023/09/03 08:23:00;;;;;;;3.55;2.25;;;25.50;89.40;;;;;;7405884;19;20014;-79
2023/09/03 08:25:30;;;;;;;3.72;2.08;;;25.50;89.10;;;;;;7387412;19;20022;-79
2023/09/03 08:27:59;;;;;;;3.40;2.17;;;25.50;88.60;;;;;;7384780;19;20007;-80
2023/09/03 08:30:30;;;;;;;6.10;2.08;;;25.50;88.40;;;;;;7388792;19;20007;-79
2023/09/03 08:32:59;;;;;;;5.80;2.50;;;25.60;88.70;;;;;;7387927;19;20007;-79
2023/09/03 08:35:28;;;;;;;5.65;2.38;;;25.60;88.60;;;;;;7386558;19;20006;-80
2023/09/03 08:37:57;;;;;;;3.28;2.40;;;25.60;88.50;;;;;;7409908;19;20043;-80
2023/09/03 08:40:26;;;;;;;7.38;2.30;;;25.60;88.60;;;;;;7388499;19;20015;-80
2023/09/03 08:42:58;;;;;;;5.93;2.75;;;25.70;88.70;;;;;;7388724;19;20018;-80
2023/09/03 08:45:33;;;;;;;4.53;2.58;;;25.70;88.40;;;;;;7388790;19;20026;-80
2023/09/03 08:48:02;;;;;;;6.82;2.28;;;25.70;88.20;;;;;;7388231;19;20362;-80
2023/09/03 08:50:33;;;;;;;11.02;2.30;;;25.80;88.30;;;;;;7390214;19;20006;-80
2023/09/03 08:53:03;;;;;;;3.17;2.25;;;25.80;88.30;;;;;;7413324;19;20028;-80
2023/09/03 08:55:34;;;;;;;2.80;2.08;;;25.80;88.40;;;;;;7389561;19;19998;-80
2023/09/03 08:58:02;;;;;;;10.40;2.28;;;25.80;88.30;;;;;;7391921;19;20393;-79
2023/09/03 09:00:34;;;;;;;4.28;2.47;;;25.80;88.20;;;;;;7391802;19;20011;-80
2023/09/03 09:03:05;;;;;;;5.80;2.35;;;25.90;88.10;;;;;;7391858;19;20223;-79
2023/09/03 09:05:35;;;;;;;7.97;2.75;;;25.90;88.00;;;;;;7387773;19;20047;-81
2023/09/03 09:08:06;;;;;;;6.47;3.08;;;25.90;87.90;;;;;;7407736;19;20022;-79
2023/09/03 09:10:37;;;;;;;5.72;2.50;;;25.90;87.90;;;;;;7386165;19;20018;-79
2023/09/03 09:13:08;;;;;;;5.15;2.38;;;26.00;87.90;;;;;;7389104;19;20080;-80
2023/09/03 09:15:43;;;;;;;5.95;2.60;;;26.00;87.80;;;;;;7388066;19;20007;-80
2023/09/03 09:18:12;;;;;;;7.60;2.50;;;26.00;87.80;;;;;;7385219;19;20010;-80
2023/09/03 09:20:42;;;;;;;6.28;2.33;;;26.00;87.50;;;;;;7384743;19;20023;-80
2023/09/03 09:23:11;;;;;;;5.25;2.45;;;26.00;87.70;;;;;;7406355;19;20011;-80
2023/09/03 09:25:40;;;;;;;6.22;2.92;;;26.10;87.80;;;;;;7383875;19;20030;-79
2023/09/03 09:28:14;;;;;;;7.00;2.50;;;26.10;87.90;;;;;;7385541;19;20019;-80
2023/09/03 09:30:58;;;;;;;4.78;2.60;;;26.10;87.30;;;;;;7387010;19;20021;-80
2023/09/03 09:33:27;;;;;;;4.68;2.63;;;26.20;87.10;;;;;;7387750;19;20070;-80
2023/09/03 09:35:56;;;;;;;5.45;2.90;;;26.20;86.80;;;;;;7387091;19;20010;-80
2023/09/03 09:38:37;;;;;;;7.22;2.85;;;26.20;86.90;;;;;;7387081;19;20053;-79
2023/09/03 09:41:23;;;;;;;4.85;2.30;;;26.20;87.20;;;;;;7408795;19;20030;-80
2023/09/03 09:43:52;;;;;;;8.63;2.67;;;26.30;87.20;;;;;;7387422;19;20261;-81
2023/09/03 09:46:34;;;;;;;9.38;2.50;;;26.30;86.90;;;;;;7389039;19;20007;-81
2023/09/03 09:49:04;;;;;;;6.78;2.75;;;26.40;86.60;;;;;;7387026;19;19999;-81
2023/09/03 09:51:33;;;;;;;6.55;2.75;;;26.40;86.60;;;;;;7387081;19;20002;-80
2023/09/03 09:54:04;;;;;;;6.45;2.72;;;26.40;86.30;;;;;;7394506;19;20101;-80
2023/09/03 09:56:34;;;;;;;5.88;2.60;;;26.40;86.20;;;;;;7401496;19;20010;-80
2023/09/03 09:59:03;;;;;;;9.52;2.60;;;26.50;86.20;;;;;;7420667;19;20014;-79
2023/09/03 10:01:46;;;;;;;5.07;2.70;;;26.50;86.60;;;;;;7400281;19;20014;-79
2023/09/03 10:04:15;;;;;;;4.57;2.85;;;26.50;86.20;;;;;;7401142;19;20007;-80
2023/09/03 10:06:44;;;;;;;6.10;2.80;;;26.60;86.00;;;;;;7385521;19;20007;-80
2023/09/03 10:09:13;;;;;;;3.42;2.53;;;26.60;85.70;;;;;;7386911;19;20098;-81
2023/09/03 10:11:42;;;;;;;9.55;3.50;;;26.60;85.30;;;;;;7389252;19;20014;-80
2023/09/03 10:14:12;;;;;;;4.55;2.72;;;26.70;85.00;;;;;;7409830;19;20397;-81
2023/09/03 10:16:44;;;;;;;3.42;2.28;;;26.70;85.10;;;;;;7388687;19;20010;-80
2023/09/03 10:19:16;;;;;;;7.13;2.55;;;26.70;84.60;;;;;;7387794;19;20007;-81
2023/09/03 10:21:47;;;;;;;5.40;3.03;;;26.70;84.20;;;;;;7387919;19;20342;-81
2023/09/03 10:24:18;;;;;;;6.82;2.55;;;26.80;83.70;;;;;;7388468;19;20011;-81
2023/09/03 10:26:50;;;;;;;8.63;3.00;;;26.80;84.00;;;;;;7387245;19;20034;-81
2023/09/03 10:29:21;;;;;;;9.02;3.05;;;26.90;83.30;;;;;;7385757;19;20011;-81
2023/09/03 10:31:54;;;;;;;5.57;2.90;;;26.90;83.20;;;;;;7407201;19;20038;-80
2023/09/03 10:34:23;;;;;;;5.22;2.70;;;27.00;83.50;;;;;;7386887;19;20376;-81
2023/09/03 10:37:08;;;;;;;5.97;2.70;;;27.00;83.60;;;;;;7386246;19;20031;-81
2023/09/03 10:39:37;;;;;;;4.93;2.75;;;27.10;83.20;;;;;;7385847;19;20030;-80
2023/09/03 10:42:31;;;;;;;5.40;2.70;;;27.10;82.70;;;;;;7386501;19;20007;-80
2023/09/03 10:45:02;;;;;;;8.10;2.80;;;27.30;82.10;;;;;;7385534;19;20003;-80
2023/09/03 10:47:33;;;;;;;;;;;27.30;82.40;;;;;;7387056;19;20038;-79
2023/09/03 10:50:02;;;;;;;3.20;2.50;;;27.20;81.30;;;;;;7409148;19;19914;-80
2023/09/03 10:52:39;;;;;;;5.05;2.88;;;27.30;81.20;;;;;;7390133;19;20038;-82
2023/09/03 10:55:17;;;;;;;4.88;2.70;;;27.40;81.90;;;;;;7388925;19;20026;-81
2023/09/03 10:57:46;;;;;;;3.72;2.67;;;27.50;81.80;;;;;;7387631;19;20003;-80
2023/09/03 11:00:20;;;;;;;5.45;2.50;;;27.60;81.10;;;;;;7388014;19;20011;-80
2023/09/03 11:02:52;;;;;;;6.47;2.90;;;27.60;80.30;;;;;;7387180;19;20022;-81
2023/09/03 11:05:23;;;;;;;5.13;3.00;;;27.70;80.20;;;;;;7387004;19;20010;-81
2023/09/03 11:08:12;;;;;;;3.60;2.53;;;27.70;80.30;;;;;;7409361;19;20006;-81
2023/09/03 11:10:42;;;;;;;3.95;2.90;;;27.70;79.70;;;;;;7387244;19;20006;-81
2023/09/03 11:13:14;;;;;;;6.38;3.10;;;27.80;79.90;;;;;;7386577;19;20002;-81
2023/09/03 11:15:52;;;;;;;5.70;3.20;;;27.90;79.30;;;;;;7386765;19;20092;-81
2023/09/03 11:18:26;;;;;;;4.03;3.00;;;27.90;79.10;;;;;;7385358;19;20017;-80
2023/09/03 11:20:56;;;;;;;4.30;3.10;;;28.00;78.90;;;;;;7390616;19;20017;-81
2023/09/03 11:23:27;;;;;;;6.18;3.40;;;28.00;78.60;;;;;;7388457;19;20007;-81
2023/09/03 11:25:56;;;;;;;8.85;3.60;;;28.00;78.70;;;;;;7411302;19;20027;-81
2023/09/03 11:28:25;;;;;;;10.93;6.65;;;28.00;78.90;;;;;;7393252;19;20010;-81
2023/09/03 11:31:03;;;;;;;5.68;3.53;;;28.10;78.70;;;;;;7393833;19;20038;-81
2023/09/03 11:33:34;;;;;;;14.60;6.93;;;28.20;78.20;;;;;;7391151;19;20011;-80
2023/09/03 11:36:03;;;;;;;6.20;3.72;;;28.20;77.90;;;;;;7392164;19;20006;-80
2023/09/03 11:38:33;;;;;;;8.85;3.22;;;28.30;78.30;;;;;;7392406;19;20034;-82
2023/09/03 11:41:02;;;;;;;8.07;3.85;;;28.30;78.20;;;;;;7410309;19;20024;-81
2023/09/03 11:43:37;;;;;;;6.63;3.25;;;28.40;78.00;;;;;;7392070;19;20397;-81
2023/09/03 11:46:14;;;;;;;6.90;3.30;;;28.40;77.00;;;;;;7391391;19;20015;-81
2023/09/03 11:48:51;;;;;;;6.55;2.70;;;28.50;77.30;;;;;;7390644;19;20015;-81
2023/09/03 11:51:27;;;;;;;7.43;3.08;;;28.60;77.80;;;;;;7399002;19;20705;-83
2023/09/03 11:53:56;;;;;;;4.65;2.83;;;28.60;77.10;;;;;;7408722;19;20021;-81
2023/09/03 11:56:27;;;;;;;9.10;2.40;;;28.60;76.20;;;;;;7408618;19;20010;-81
2023/09/03 11:59:04;;;;;;;10.35;3.05;;;28.60;76.50;;;;;;7433367;19;20007;-82
2023/09/03 12:01:33;;;;;;;4.40;2.67;;;28.70;76.30;;;;;;7404311;19;20021;-80
2023/09/03 12:04:05;;;;;;;6.68;2.53;;;28.80;76.60;;;;;;7390637;19;20010;-80
2023/09/03 12:06:38;;;;;;;5.60;2.50;;;28.80;76.20;;;;;;7389895;19;20003;-81
2023/09/03 12:09:07;;;;;;;6.65;3.05;;;28.90;75.50;;;;;;7392874;19;20013;-81
2023/09/03 12:11:35;;;;;;;7.90;2.80;;;28.90;74.90;;;;;;7392642;19;20049;-80
2023/09/03 12:14:04;;;;;;;4.47;3.13;;;28.90;75.00;;;;;;7411043;19;20010;-81
2023/09/03 12:16:33;;;;;;;5.07;3.05;;;29.00;75.10;;;;;;7390547;19;20013;-81
2023/09/03 12:19:05;;;;;;;4.32;2.70;;;29.10;75.00;;;;;;7390686;19;20017;-81
2023/09/03 12:21:35;;;;;;;4.95;2.70;;;29.10;74.80;;;;;;7392349;19;20006;-81
2023/09/03 12:24:06;;;;;;;3.50;2.70;;;29.10;74.80;;;;;;7392168;19;20011;-81
2023/09/03 12:26:35;;;;;;;;;;;29.20;74.40;;;;;;7391488;19;20195;-81
2023/09/03 12:29:04;;;;;;;4.35;2.58;;;29.20;74.40;;;;;;7410467;19;20513;-81
2023/09/03 12:31:43;;;;;;;4.60;2.60;;;29.20;73.40;;;;;;7387887;19;20003;-81
2023/09/03 12:34:17;;;;;;;5.22;2.45;;;29.30;72.50;;;;;;7390549;19;20026;-81
2023/09/03 12:36:59;;;;;;;6.13;2.65;;;29.40;73.10;;;;;;7393447;19;20007;-80
2023/09/03 12:39:31;;;;;;;4.47;2.85;;;29.50;73.30;;;;;;7392271;19;20529;-81
2023/09/03 12:42:00;;;;;;;5.88;2.90;;;29.60;73.10;;;;;;7389762;19;20020;-81
2023/09/03 12:44:30;;;;;;;3.67;2.55;;;29.60;72.10;;;;;;7391520;19;20011;-81
2023/09/03 12:46:59;;;;;;;2.67;2.40;;;29.80;71.30;;;;;;7410598;19;20002;-80
2023/09/03 12:49:31;;;;;;;3.10;2.42;;;29.80;71.70;;;;;;7388744;19;20087;-81
2023/09/03 12:52:00;;;;;;;4.82;2.70;;;29.90;71.90;;;;;;7389030;19;20051;-81
2023/09/03 12:54:31;;;;;;;4.20;2.65;;;30.00;71.60;;;;;;7389449;19;20014;-81
2023/09/03 12:57:00;;;;;;;6.03;2.38;;;30.00;71.30;;;;;;7393804;19;20057;-82
2023/09/03 12:59:29;;;;;;;6.22;2.47;;;30.10;71.40;;;;;;7397588;19;20017;-81
2023/09/03 13:01:57;;;;;;;8.13;2.60;;;30.10;71.40;;;;;;7411349;19;20013;-82
2023/09/03 13:04:26;;;;;;;4.78;2.65;;;30.20;70.20;;;;;;7390845;19;20003;-81
2023/09/03 13:06:57;;;;;;;3.00;2.65;;;30.20;69.80;;;;;;7390102;19;20418;-81